sensor_id;sensor_type;location;lat;lon;timestamp;temperature;humidity
12761;DHT22;6444;49.742;6.114;2023-02-24T00:02:21;12.80;99.90
12761;DHT22;6444;49.742;6.114;2023-02-24T00:04:47;12.80;99.90
12761;DHT22;6444;49.742;6.114;2023-02-24T00:07:14;12.80;99.90
12761;DHT22;6444;49.742;6.114;2023-02-24T00:09:41;12.60;99.90
12761;DHT22;6444;49.742;6.114;2023-02-24T00:12:13;12.70;99.90
12761;DHT22;6444;49.742;6.114;2023-02-24T00:14:35;12.60;99.90
12761;DHT22;6444;49.742;6.114;2023-02-24T00:17:01;12.40;99.90
12761;DHT22;6444;49.742;6.114;2023-02-24T00:19:29;12.40;99.90
12761;DHT22;6444;49.742;6.114;2023-02-24T00:21:54;12.50;99.90
12761;DHT22;6444;49.742;6.114;2023-02-24T00:24:21;12.60;99.90
12761;DHT22;6444;49.742;6.114;2023-02-24T00:26:52;12.30;99.90
12761;DHT22;6444;49.742;6.114;2023-02-24T00:29:18;12.20;99.90
12761;DHT22;6444;49.742;6.114;2023-02-24T00:31:45;12.20;99.90
12761;DHT22;6444;49.742;6.114;2023-02-24T00:34:11;12.10;99.90
12761;DHT22;6444;49.742;6.114;2023-02-24T00:36:38;12.20;99.90
12761;DHT22;6444;49.742;6.114;2023-02-24T00:39:06;11.90;99.90
12761;DHT22;6444;49.742;6.114;2023-02-24T00:41:37;11.40;99.90
12761;DHT22;6444;49.742;6.114;2023-02-24T00:44:01;11.70;99.90
12761;DHT22;6444;49.742;6.114;2023-02-24T00:46:27;11.80;99.90
12761;DHT22;6444;49.742;6.114;2023-02-24T00:48:55;12.00;99.90
12761;DHT22;6444;49.742;6.114;2023-02-24T00:51:22;11.90;99.90
12761;DHT22;6444;49.742;6.114;2023-02-24T00:53:51;12.20;99.90
12761;DHT22;6444;49.742;6.114;2023-02-24T00:56:17;12.10;99.90
12761;DHT22;6444;49.742;6.114;2023-02-24T00:58:45;12.40;99.90
12761;DHT22;6444;49.742;6.114;2023-02-24T01:01:15;12.40;99.90
12761;DHT22;6444;49.742;6.114;2023-02-24T01:03:38;12.00;99.90
12761;DHT22;6444;49.742;6.114;2023-02-24T01:06:04;11.00;99.90
12761;DHT22;6444;49.742;6.114;2023-02-24T01:08:31;11.50;99.90
12761;DHT22;6444;49.742;6.114;2023-02-24T01:10:58;11.90;99.90
12761;DHT22;6444;49.742;6.114;2023-02-24T01:13:43;12.10;99.90
12761;DHT22;6444;49.742;6.114;2023-02-24T01:16:09;12.20;99.90
12761;DHT22;6444;49.742;6.114;2023-02-24T01:18:36;12.30;99.90
12761;DHT22;6444;49.742;6.114;2023-02-24T01:21:03;12.00;99.90
12761;DHT22;6444;49.742;6.114;2023-02-24T01:23:29;11.70;99.90
12761;DHT22;6444;49.742;6.114;2023-02-24T01:25:56;12.10;99.90
12761;DHT22;6444;49.742;6.114;2023-02-24T01:28:23;12.10;99.90
12761;DHT22;6444;49.742;6.114;2023-02-24T01:30:50;12.30;99.90
12761;DHT22;6444;49.742;6.114;2023-02-24T01:33:16;12.50;99.90
12761;DHT22;6444;49.742;6.114;2023-02-24T01:35:43;12.60;99.90
12761;DHT22;6444;49.742;6.114;2023-02-24T01:38:10;12.50;99.90
12761;DHT22;6444;49.742;6.114;2023-02-24T01:40:37;12.50;99.90
12761;DHT22;6444;49.742;6.114;2023-02-24T01:43:04;12.50;99.90
12761;DHT22;6444;49.742;6.114;2023-02-24T01:45:33;12.40;99.90
12761;DHT22;6444;49.742;6.114;2023-02-24T01:48:00;12.40;99.90
12761;DHT22;6444;49.742;6.114;2023-02-24T01:50:27;12.40;99.90
12761;DHT22;6444;49.742;6.114;2023-02-24T01:52:55;12.40;99.90
12761;DHT22;6444;49.742;6.114;2023-02-24T01:55:22;12.40;99.90
12761;DHT22;6444;49.742;6.114;2023-02-24T01:57:47;12.10;99.90
12761;DHT22;6444;49.742;6.114;2023-02-24T02:00:14;11.90;99.90
12761;DHT22;6444;49.742;6.114;2023-02-24T02:02:47;12.00;99.90
12761;DHT22;6444;49.742;6.114;2023-02-24T02:05:13;11.90;99.90
12761;DHT22;6444;49.742;6.114;2023-02-24T02:07:39;11.40;99.90
12761;DHT22;6444;49.742;6.114;2023-02-24T02:10:07;11.10;99.90
12761;DHT22;6444;49.742;6.114;2023-02-24T02:12:34;11.10;99.90
12761;DHT22;6444;49.742;6.114;2023-02-24T02:15:00;11.50;99.90
12761;DHT22;6444;49.742;6.114;2023-02-24T02:17:29;11.50;99.90
12761;DHT22;6444;49.742;6.114;2023-02-24T02:21:14;11.60;99.90
12761;DHT22;6444;49.742;6.114;2023-02-24T02:25:39;11.50;99.90
12761;DHT22;6444;49.742;6.114;2023-02-24T02:28:19;11.60;99.90
12761;DHT22;6444;49.742;6.114;2023-02-24T02:31:00;11.70;99.90
12761;DHT22;6444;49.742;6.114;2023-02-24T02:33:45;11.80;99.90
12761;DHT22;6444;49.742;6.114;2023-02-24T02:36:16;11.90;99.90
12761;DHT22;6444;49.742;6.114;2023-02-24T02:39:15;11.60;99.90
12761;DHT22;6444;49.742;6.114;2023-02-24T02:41:55;11.20;99.90
12761;DHT22;6444;49.742;6.114;2023-02-24T02:47:58;10.20;99.90
12761;DHT22;6444;49.742;6.114;2023-02-24T02:49:41;10.60;99.90
12761;DHT22;6444;49.742;6.114;2023-02-24T02:54:59;11.10;99.90
12761;DHT22;6444;49.742;6.114;2023-02-24T02:57:25;11.20;99.90
12761;DHT22;6444;49.742;6.114;2023-02-24T02:59:58;10.90;99.90
12761;DHT22;6444;49.742;6.114;2023-02-24T03:02:22;11.20;99.90
12761;DHT22;6444;49.742;6.114;2023-02-24T03:04:50;11.40;99.90
12761;DHT22;6444;49.742;6.114;2023-02-24T03:07:16;11.10;99.90
12761;DHT22;6444;49.742;6.114;2023-02-24T03:09:43;11.20;99.90
12761;DHT22;6444;49.742;6.114;2023-02-24T03:12:11;11.30;99.90
12761;DHT22;6444;49.742;6.114;2023-02-24T03:14:40;11.00;99.90
12761;DHT22;6444;49.742;6.114;2023-02-24T03:17:15;11.20;99.90
12761;DHT22;6444;49.742;6.114;2023-02-24T03:19:36;11.40;99.90
12761;DHT22;6444;49.742;6.114;2023-02-24T03:22:08;11.30;99.90
12761;DHT22;6444;49.742;6.114;2023-02-24T03:24:33;11.30;99.90
12761;DHT22;6444;49.742;6.114;2023-02-24T03:27:29;11.30;99.90
12761;DHT22;6444;49.742;6.114;2023-02-24T03:30:05;11.10;99.90
12761;DHT22;6444;49.742;6.114;2023-02-24T03:32:39;10.50;99.90
12761;DHT22;6444;49.742;6.114;2023-02-24T03:35:17;10.30;99.90
12761;DHT22;6444;49.742;6.114;2023-02-24T03:37:34;10.30;99.90
12761;DHT22;6444;49.742;6.114;2023-02-24T03:40:02;10.70;99.90
12761;DHT22;6444;49.742;6.114;2023-02-24T03:42:37;11.10;99.90
12761;DHT22;6444;49.742;6.114;2023-02-24T03:45:03;10.80;99.90
12761;DHT22;6444;49.742;6.114;2023-02-24T03:47:29;10.40;99.90
12761;DHT22;6444;49.742;6.114;2023-02-24T03:49:56;10.60;99.90
12761;DHT22;6444;49.742;6.114;2023-02-24T04:09:18;11.00;99.90
12761;DHT22;6444;49.742;6.114;2023-02-24T04:11:16;11.10;99.90
12761;DHT22;6444;49.742;6.114;2023-02-24T04:13:46;11.20;99.90
12761;DHT22;6444;49.742;6.114;2023-02-24T04:16:28;11.20;99.90
12761;DHT22;6444;49.742;6.114;2023-02-24T04:18:59;11.30;99.90
12761;DHT22;6444;49.742;6.114;2023-02-24T04:21:27;11.30;99.90
12761;DHT22;6444;49.742;6.114;2023-02-24T04:23:53;11.40;99.90
12761;DHT22;6444;49.742;6.114;2023-02-24T04:26:20;11.30;99.90
12761;DHT22;6444;49.742;6.114;2023-02-24T04:28:46;11.30;99.90
12761;DHT22;6444;49.742;6.114;2023-02-24T04:31:13;11.30;99.90
12761;DHT22;6444;49.742;6.114;2023-02-24T04:33:40;11.40;99.90
12761;DHT22;6444;49.742;6.114;2023-02-24T04:36:06;11.30;99.90
12761;DHT22;6444;49.742;6.114;2023-02-24T04:38:34;11.30;99.90
12761;DHT22;6444;49.742;6.114;2023-02-24T04:41:00;11.20;99.90
12761;DHT22;6444;49.742;6.114;2023-02-24T04:43:26;11.10;99.90
12761;DHT22;6444;49.742;6.114;2023-02-24T04:45:53;11.20;99.90
12761;DHT22;6444;49.742;6.114;2023-02-24T04:48:20;11.20;99.90
12761;DHT22;6444;49.742;6.114;2023-02-24T04:50:46;10.60;99.90
12761;DHT22;6444;49.742;6.114;2023-02-24T04:53:14;10.40;99.90
12761;DHT22;6444;49.742;6.114;2023-02-24T04:55:41;10.60;99.90
12761;DHT22;6444;49.742;6.114;2023-02-24T04:58:10;10.10;99.90
12761;DHT22;6444;49.742;6.114;2023-02-24T05:00:36;10.20;99.90
12761;DHT22;6444;49.742;6.114;2023-02-24T05:03:03;10.30;99.90
12761;DHT22;6444;49.742;6.114;2023-02-24T05:05:29;10.40;99.90
12761;DHT22;6444;49.742;6.114;2023-02-24T05:07:59;10.60;99.90
12761;DHT22;6444;49.742;6.114;2023-02-24T05:10:25;11.00;99.90
12761;DHT22;6444;49.742;6.114;2023-02-24T05:12:52;10.80;99.90
12761;DHT22;6444;49.742;6.114;2023-02-24T05:15:18;11.10;99.90
12761;DHT22;6444;49.742;6.114;2023-02-24T05:17:45;11.20;99.90
12761;DHT22;6444;49.742;6.114;2023-02-24T05:20:12;11.30;99.90
12761;DHT22;6444;49.742;6.114;2023-02-24T05:22:57;11.20;99.90
12761;DHT22;6444;49.742;6.114;2023-02-24T05:25:24;11.00;99.90
12761;DHT22;6444;49.742;6.114;2023-02-24T05:27:50;10.90;99.90
12761;DHT22;6444;49.742;6.114;2023-02-24T05:30:17;10.90;99.90
12761;DHT22;6444;49.742;6.114;2023-02-24T05:32:44;10.90;99.90
12761;DHT22;6444;49.742;6.114;2023-02-24T05:35:10;11.00;99.90
12761;DHT22;6444;49.742;6.114;2023-02-24T05:37:37;11.10;99.90
12761;DHT22;6444;49.742;6.114;2023-02-24T05:40:04;10.90;99.90
12761;DHT22;6444;49.742;6.114;2023-02-24T05:42:30;10.90;99.90
12761;DHT22;6444;49.742;6.114;2023-02-24T05:45:00;10.70;99.90
12761;DHT22;6444;49.742;6.114;2023-02-24T05:47:26;10.70;99.90
12761;DHT22;6444;49.742;6.114;2023-02-24T05:49:53;10.50;99.90
12761;DHT22;6444;49.742;6.114;2023-02-24T05:52:19;9.90;99.90
12761;DHT22;6444;49.742;6.114;2023-02-24T05:54:46;9.00;99.90
12761;DHT22;6444;49.742;6.114;2023-02-24T05:57:14;8.90;99.90
12761;DHT22;6444;49.742;6.114;2023-02-24T05:59:40;9.90;99.90
12761;DHT22;6444;49.742;6.114;2023-02-24T06:02:11;9.90;99.90
12761;DHT22;6444;49.742;6.114;2023-02-24T06:04:40;10.30;99.90
12761;DHT22;6444;49.742;6.114;2023-02-24T06:07:10;10.70;99.90
12761;DHT22;6444;49.742;6.114;2023-02-24T06:09:35;11.20;99.90
12761;DHT22;6444;49.742;6.114;2023-02-24T06:12:02;11.10;99.90
12761;DHT22;6444;49.742;6.114;2023-02-24T06:14:28;11.20;99.90
12761;DHT22;6444;49.742;6.114;2023-02-24T06:16:55;10.90;99.90
12761;DHT22;6444;49.742;6.114;2023-02-24T06:19:22;10.90;99.90
12761;DHT22;6444;49.742;6.114;2023-02-24T06:21:48;10.80;99.90
12761;DHT22;6444;49.742;6.114;2023-02-24T06:24:16;9.40;99.90
12761;DHT22;6444;49.742;6.114;2023-02-24T06:26:43;9.30;99.90
12761;DHT22;6444;49.742;6.114;2023-02-24T06:29:15;10.00;99.90
12761;DHT22;6444;49.742;6.114;2023-02-24T06:31:43;10.50;99.90
12761;DHT22;6444;49.742;6.114;2023-02-24T06:34:10;10.40;99.90
12761;DHT22;6444;49.742;6.114;2023-02-24T06:36:39;10.30;99.90
12761;DHT22;6444;49.742;6.114;2023-02-24T06:39:05;10.50;99.90
12761;DHT22;6444;49.742;6.114;2023-02-24T06:41:35;9.90;99.90
12761;DHT22;6444;49.742;6.114;2023-02-24T06:44:03;9.80;99.90
12761;DHT22;6444;49.742;6.114;2023-02-24T06:46:30;9.40;99.90
12761;DHT22;6444;49.742;6.114;2023-02-24T06:48:57;9.80;99.90
12761;DHT22;6444;49.742;6.114;2023-02-24T06:51:24;9.70;99.90
12761;DHT22;6444;49.742;6.114;2023-02-24T06:53:51;10.00;99.90
12761;DHT22;6444;49.742;6.114;2023-02-24T06:56:17;10.30;99.90
12761;DHT22;6444;49.742;6.114;2023-02-24T06:58:45;10.10;99.90
12761;DHT22;6444;49.742;6.114;2023-02-24T07:01:11;10.60;99.90
12761;DHT22;6444;49.742;6.114;2023-02-24T07:03:38;9.40;99.90
12761;DHT22;6444;49.742;6.114;2023-02-24T07:06:07;9.40;99.90
12761;DHT22;6444;49.742;6.114;2023-02-24T07:08:46;9.10;99.90
12761;DHT22;6444;49.742;6.114;2023-02-24T07:11:14;10.30;99.90
12761;DHT22;6444;49.742;6.114;2023-02-24T07:13:40;10.30;99.90
12761;DHT22;6444;49.742;6.114;2023-02-24T07:16:07;10.90;99.90
12761;DHT22;6444;49.742;6.114;2023-02-24T07:18:33;11.20;99.90
12761;DHT22;6444;49.742;6.114;2023-02-24T07:21:01;10.80;99.90
12761;DHT22;6444;49.742;6.114;2023-02-24T07:23:27;11.20;99.90
12761;DHT22;6444;49.742;6.114;2023-02-24T07:25:53;11.50;99.90
12761;DHT22;6444;49.742;6.114;2023-02-24T07:28:21;10.90;99.90
12761;DHT22;6444;49.742;6.114;2023-02-24T07:30:47;10.80;99.90
12761;DHT22;6444;49.742;6.114;2023-02-24T07:33:14;10.70;99.90
12761;DHT22;6444;49.742;6.114;2023-02-24T07:35:41;11.20;99.90
12761;DHT22;6444;49.742;6.114;2023-02-24T07:38:07;10.60;99.90
12761;DHT22;6444;49.742;6.114;2023-02-24T07:40:34;10.80;99.90
12761;DHT22;6444;49.742;6.114;2023-02-24T07:43:01;11.80;99.90
12761;DHT22;6444;49.742;6.114;2023-02-24T07:45:28;11.80;99.90
12761;DHT22;6444;49.742;6.114;2023-02-24T07:47:55;11.90;99.90
12761;DHT22;6444;49.742;6.114;2023-02-24T07:50:21;12.20;99.90
12761;DHT22;6444;49.742;6.114;2023-02-24T07:52:48;12.10;99.90
12761;DHT22;6444;49.742;6.114;2023-02-24T07:55:14;12.30;99.90
12761;DHT22;6444;49.742;6.114;2023-02-24T07:57:41;12.40;99.90
12761;DHT22;6444;49.742;6.114;2023-02-24T08:00:09;12.70;99.90
12761;DHT22;6444;49.742;6.114;2023-02-24T08:02:41;12.60;99.90
12761;DHT22;6444;49.742;6.114;2023-02-24T08:05:08;12.80;99.90
12761;DHT22;6444;49.742;6.114;2023-02-24T08:07:35;12.80;99.90
12761;DHT22;6444;49.742;6.114;2023-02-24T08:10:01;12.60;99.90
12761;DHT22;6444;49.742;6.114;2023-02-24T08:12:40;12.50;99.90
12761;DHT22;6444;49.742;6.114;2023-02-24T08:15:07;12.30;99.90
12761;DHT22;6444;49.742;6.114;2023-02-24T08:17:33;11.90;99.90
12761;DHT22;6444;49.742;6.114;2023-02-24T08:20:00;12.20;99.90
12761;DHT22;6444;49.742;6.114;2023-02-24T08:22:39;12.70;99.90
12761;DHT22;6444;49.742;6.114;2023-02-24T08:25:06;13.00;99.90
12761;DHT22;6444;49.742;6.114;2023-02-24T08:27:34;13.30;99.90
12761;DHT22;6444;49.742;6.114;2023-02-24T08:29:59;13.00;99.90
12761;DHT22;6444;49.742;6.114;2023-02-24T08:35:01;13.50;99.90
12761;DHT22;6444;49.742;6.114;2023-02-24T08:37:30;13.30;99.90
12761;DHT22;6444;49.742;6.114;2023-02-24T08:39:59;13.50;99.90
12761;DHT22;6444;49.742;6.114;2023-02-24T08:42:26;13.60;99.90
12761;DHT22;6444;49.742;6.114;2023-02-24T08:44:52;13.90;99.90
12761;DHT22;6444;49.742;6.114;2023-02-24T08:47:19;13.50;99.90
12761;DHT22;6444;49.742;6.114;2023-02-24T08:49:46;13.60;99.90
12761;DHT22;6444;49.742;6.114;2023-02-24T08:52:12;13.70;99.90
12761;DHT22;6444;49.742;6.114;2023-02-24T08:54:39;13.90;99.90
12761;DHT22;6444;49.742;6.114;2023-02-24T08:57:05;14.20;99.90
12761;DHT22;6444;49.742;6.114;2023-02-24T08:59:35;14.30;99.90
12761;DHT22;6444;49.742;6.114;2023-02-24T09:02:11;13.40;99.90
12761;DHT22;6444;49.742;6.114;2023-02-24T09:04:53;13.20;99.90
12761;DHT22;6444;49.742;6.114;2023-02-24T09:07:26;13.10;99.90
12761;DHT22;6444;49.742;6.114;2023-02-24T09:09:49;13.70;99.90
12761;DHT22;6444;49.742;6.114;2023-02-24T09:12:16;14.10;99.90
12761;DHT22;6444;49.742;6.114;2023-02-24T09:14:49;14.10;99.90
12761;DHT22;6444;49.742;6.114;2023-02-24T09:17:15;14.40;99.90
12761;DHT22;6444;49.742;6.114;2023-02-24T09:22:12;15.00;99.90
12761;DHT22;6444;49.742;6.114;2023-02-24T09:24:40;15.30;99.90
12761;DHT22;6444;49.742;6.114;2023-02-24T09:27:07;15.00;99.90
12761;DHT22;6444;49.742;6.114;2023-02-24T09:29:33;15.10;99.90
12761;DHT22;6444;49.742;6.114;2023-02-24T09:32:01;15.30;99.90
12761;DHT22;6444;49.742;6.114;2023-02-24T09:34:36;15.80;99.90
12761;DHT22;6444;49.742;6.114;2023-02-24T09:37:03;16.30;99.90
12761;DHT22;6444;49.742;6.114;2023-02-24T09:39:32;16.90;99.90
12761;DHT22;6444;49.742;6.114;2023-02-24T09:42:20;17.80;99.90
12761;DHT22;6444;49.742;6.114;2023-02-24T09:45:37;18.50;99.90
12761;DHT22;6444;49.742;6.114;2023-02-24T09:47:28;19.20;99.90
12761;DHT22;6444;49.742;6.114;2023-02-24T09:49:58;19.10;99.90
12761;DHT22;6444;49.742;6.114;2023-02-24T09:52:27;19.10;99.90
12761;DHT22;6444;49.742;6.114;2023-02-24T09:54:53;18.80;99.90
12761;DHT22;6444;49.742;6.114;2023-02-24T09:57:50;19.10;99.90
12761;DHT22;6444;49.742;6.114;2023-02-24T10:00:32;19.60;99.90
12761;DHT22;6444;49.742;6.114;2023-02-24T10:03:09;19.80;99.90
12761;DHT22;6444;49.742;6.114;2023-02-24T10:05:40;20.40;99.90
12761;DHT22;6444;49.742;6.114;2023-02-24T10:08:01;21.20;99.90
12761;DHT22;6444;49.742;6.114;2023-02-24T10:10:29;21.20;99.90
12761;DHT22;6444;49.742;6.114;2023-02-24T10:15:22;16.80;99.90
12761;DHT22;6444;49.742;6.114;2023-02-24T10:17:58;17.00;99.90
12761;DHT22;6444;49.742;6.114;2023-02-24T10:20:18;17.40;99.90
12761;DHT22;6444;49.742;6.114;2023-02-24T10:22:51;18.40;99.90
12761;DHT22;6444;49.742;6.114;2023-02-24T10:25:39;19.70;99.90
12761;DHT22;6444;49.742;6.114;2023-02-24T10:32:59;20.80;98.30
12761;DHT22;6444;49.742;6.114;2023-02-24T10:35:26;20.10;96.70
12761;DHT22;6444;49.742;6.114;2023-02-24T10:37:52;19.90;98.50
12761;DHT22;6444;49.742;6.114;2023-02-24T10:40:18;19.90;98.50
12761;DHT22;6444;49.742;6.114;2023-02-24T10:42:45;19.40;97.80
12761;DHT22;6444;49.742;6.114;2023-02-24T10:45:21;19.30;97.80
12761;DHT22;6444;49.742;6.114;2023-02-24T10:47:53;18.30;97.40
12761;DHT22;6444;49.742;6.114;2023-02-24T10:50:26;17.80;98.80
12761;DHT22;6444;49.742;6.114;2023-02-24T10:53:01;17.20;99.90
12761;DHT22;6444;49.742;6.114;2023-02-24T10:55:30;16.90;99.90
12761;DHT22;6444;49.742;6.114;2023-02-24T10:58:04;16.60;99.90
12761;DHT22;6444;49.742;6.114;2023-02-24T11:00:39;16.50;99.90
12761;DHT22;6444;49.742;6.114;2023-02-24T11:03:24;16.70;99.90
12761;DHT22;6444;49.742;6.114;2023-02-24T11:05:50;16.60;99.90
12761;DHT22;6444;49.742;6.114;2023-02-24T11:08:35;16.70;99.90
12761;DHT22;6444;49.742;6.114;2023-02-24T11:11:20;16.90;99.90
12761;DHT22;6444;49.742;6.114;2023-02-24T11:13:48;16.90;99.90
12761;DHT22;6444;49.742;6.114;2023-02-24T11:16:54;16.80;99.90
12761;DHT22;6444;49.742;6.114;2023-02-24T11:19:44;17.80;99.90
12761;DHT22;6444;49.742;6.114;2023-02-24T11:22:13;17.70;99.90
12761;DHT22;6444;49.742;6.114;2023-02-24T11:24:40;18.30;99.10
12761;DHT22;6444;49.742;6.114;2023-02-24T11:27:08;18.30;99.10
12761;DHT22;6444;49.742;6.114;2023-02-24T11:40:44;17.00;99.30
12761;DHT22;6444;49.742;6.114;2023-02-24T11:43:12;17.00;99.00
12761;DHT22;6444;49.742;6.114;2023-02-24T11:45:42;16.80;99.90
12761;DHT22;6444;49.742;6.114;2023-02-24T11:48:14;17.00;99.90
12761;DHT22;6444;49.742;6.114;2023-02-24T11:50:58;17.10;99.90
12761;DHT22;6444;49.742;6.114;2023-02-24T11:53:46;17.00;99.70
12761;DHT22;6444;49.742;6.114;2023-02-24T11:56:13;16.70;99.60
12761;DHT22;6444;49.742;6.114;2023-02-24T12:02:03;16.70;99.90
12761;DHT22;6444;49.742;6.114;2023-02-24T12:06:32;17.00;99.30
12761;DHT22;6444;49.742;6.114;2023-02-24T12:08:59;16.70;99.50
12761;DHT22;6444;49.742;6.114;2023-02-24T12:11:35;16.20;99.70
12761;DHT22;6444;49.742;6.114;2023-02-24T12:14:03;16.30;98.60
12761;DHT22;6444;49.742;6.114;2023-02-24T12:16:27;16.20;98.70
12761;DHT22;6444;49.742;6.114;2023-02-24T12:18:59;16.80;99.30
12761;DHT22;6444;49.742;6.114;2023-02-24T12:21:48;17.10;97.90
12761;DHT22;6444;49.742;6.114;2023-02-24T12:23:51;16.80;98.20
12761;DHT22;6444;49.742;6.114;2023-02-24T12:26:32;17.10;97.30
12761;DHT22;6444;49.742;6.114;2023-02-24T12:34:26;17.60;94.10
12761;DHT22;6444;49.742;6.114;2023-02-24T12:37:50;17.50;95.70
12761;DHT22;6444;49.742;6.114;2023-02-24T12:39:56;17.20;95.40
12761;DHT22;6444;49.742;6.114;2023-02-24T12:42:23;16.90;96.80
12761;DHT22;6444;49.742;6.114;2023-02-24T12:50:23;17.10;97.60
12761;DHT22;6444;49.742;6.114;2023-02-24T12:53:13;17.10;96.40
12761;DHT22;6444;49.742;6.114;2023-02-24T12:56:03;16.50;97.50
12761;DHT22;6444;49.742;6.114;2023-02-24T12:58:33;16.80;97.80
12761;DHT22;6444;49.742;6.114;2023-02-24T13:03:49;17.30;97.60
12761;DHT22;6444;49.742;6.114;2023-02-24T13:08:58;17.10;97.40
12761;DHT22;6444;49.742;6.114;2023-02-24T13:11:41;17.20;97.20
12761;DHT22;6444;49.742;6.114;2023-02-24T13:17:01;16.50;97.30
12761;DHT22;6444;49.742;6.114;2023-02-24T13:22:17;16.10;96.40
12761;DHT22;6444;49.742;6.114;2023-02-24T13:24:37;16.10;96.40
12761;DHT22;6444;49.742;6.114;2023-02-24T13:29:45;15.50;96.60
12761;DHT22;6444;49.742;6.114;2023-02-24T13:32:25;15.40;97.10
12761;DHT22;6444;49.742;6.114;2023-02-24T13:34:50;15.60;96.60
12761;DHT22;6444;49.742;6.114;2023-02-24T13:37:28;15.40;96.80
12761;DHT22;6444;49.742;6.114;2023-02-24T13:39:52;14.80;97.10
12761;DHT22;6444;49.742;6.114;2023-02-24T13:42:24;14.60;97.10
12761;DHT22;6444;49.742;6.114;2023-02-24T14:01:45;14.70;98.80
12761;DHT22;6444;49.742;6.114;2023-02-24T14:04:17;14.40;98.60
12761;DHT22;6444;49.742;6.114;2023-02-24T14:06:51;14.60;98.60
12761;DHT22;6444;49.742;6.114;2023-02-24T14:09:17;15.00;97.90
12761;DHT22;6444;49.742;6.114;2023-02-24T14:11:43;14.70;98.20
12761;DHT22;6444;49.742;6.114;2023-02-24T14:14:15;14.60;98.10
12761;DHT22;6444;49.742;6.114;2023-02-24T14:16:39;14.90;97.60
12761;DHT22;6444;49.742;6.114;2023-02-24T14:19:11;15.30;97.10
12761;DHT22;6444;49.742;6.114;2023-02-24T14:21:32;15.00;95.60
12761;DHT22;6444;49.742;6.114;2023-02-24T14:24:00;15.20;95.30
12761;DHT22;6444;49.742;6.114;2023-02-24T14:26:26;15.40;95.20
12761;DHT22;6444;49.742;6.114;2023-02-24T14:28:56;15.60;93.00
12761;DHT22;6444;49.742;6.114;2023-02-24T14:31:20;15.30;94.20
12761;DHT22;6444;49.742;6.114;2023-02-24T14:33:46;15.50;94.10
12761;DHT22;6444;49.742;6.114;2023-02-24T14:36:16;15.00;94.80
12761;DHT22;6444;49.742;6.114;2023-02-24T14:38:42;14.70;93.80
12761;DHT22;6444;49.742;6.114;2023-02-24T14:41:22;13.80;95.80
12761;DHT22;6444;49.742;6.114;2023-02-24T14:43:50;14.10;95.80
12761;DHT22;6444;49.742;6.114;2023-02-24T14:46:17;14.60;95.00
12761;DHT22;6444;49.742;6.114;2023-02-24T14:48:44;14.30;95.50
12761;DHT22;6444;49.742;6.114;2023-02-24T14:51:30;14.40;95.10
12761;DHT22;6444;49.742;6.114;2023-02-24T14:53:57;14.60;94.80
12761;DHT22;6444;49.742;6.114;2023-02-24T14:56:23;14.50;94.70
12761;DHT22;6444;49.742;6.114;2023-02-24T14:58:53;14.50;94.40
12761;DHT22;6444;49.742;6.114;2023-02-24T15:01:35;14.80;94.30
12761;DHT22;6444;49.742;6.114;2023-02-24T15:04:01;14.40;94.30
12761;DHT22;6444;49.742;6.114;2023-02-24T15:06:30;14.40;94.90
12761;DHT22;6444;49.742;6.114;2023-02-24T15:09:00;14.70;95.10
12761;DHT22;6444;49.742;6.114;2023-02-24T15:11:26;14.90;94.20
12761;DHT22;6444;49.742;6.114;2023-02-24T15:13:56;14.80;94.50
12761;DHT22;6444;49.742;6.114;2023-02-24T15:16:35;14.70;94.10
12761;DHT22;6444;49.742;6.114;2023-02-24T15:18:59;14.70;93.80
12761;DHT22;6444;49.742;6.114;2023-02-24T15:21:33;14.30;93.50
12761;DHT22;6444;49.742;6.114;2023-02-24T15:23:59;14.20;93.40
12761;DHT22;6444;49.742;6.114;2023-02-24T15:26:26;13.70;94.10
12761;DHT22;6444;49.742;6.114;2023-02-24T15:28:58;13.60;94.00
12761;DHT22;6444;49.742;6.114;2023-02-24T15:31:24;13.80;94.00
12761;DHT22;6444;49.742;6.114;2023-02-24T15:34:00;13.70;93.60
12761;DHT22;6444;49.742;6.114;2023-02-24T15:36:29;13.60;92.80
12761;DHT22;6444;49.742;6.114;2023-02-24T15:38:55;12.50;93.80
12761;DHT22;6444;49.742;6.114;2023-02-24T15:41:20;12.60;94.50
12761;DHT22;6444;49.742;6.114;2023-02-24T15:43:48;13.10;94.00
12761;DHT22;6444;49.742;6.114;2023-02-24T15:46:26;13.40;94.40
12761;DHT22;6444;49.742;6.114;2023-02-24T15:48:50;13.60;94.20
12761;DHT22;6444;49.742;6.114;2023-02-24T15:51:41;13.70;94.00
12761;DHT22;6444;49.742;6.114;2023-02-24T15:53:45;13.60;94.00
12761;DHT22;6444;49.742;6.114;2023-02-24T15:56:12;13.00;94.80
12761;DHT22;6444;49.742;6.114;2023-02-24T15:58:39;13.20;94.90
12761;DHT22;6444;49.742;6.114;2023-02-24T16:01:07;13.60;94.90
12761;DHT22;6444;49.742;6.114;2023-02-24T16:03:32;13.80;95.20
12761;DHT22;6444;49.742;6.114;2023-02-24T16:05:58;12.60;95.60
12761;DHT22;6444;49.742;6.114;2023-02-24T16:08:25;12.60;96.30
12761;DHT22;6444;49.742;6.114;2023-02-24T16:10:52;13.20;96.20
12761;DHT22;6444;49.742;6.114;2023-02-24T16:13:22;13.40;95.80
12761;DHT22;6444;49.742;6.114;2023-02-24T16:15:45;13.10;96.10
12761;DHT22;6444;49.742;6.114;2023-02-24T16:18:13;13.20;96.00
12761;DHT22;6444;49.742;6.114;2023-02-24T16:20:38;13.20;96.10
12761;DHT22;6444;49.742;6.114;2023-02-24T16:23:05;13.30;95.70
12761;DHT22;6444;49.742;6.114;2023-02-24T16:25:39;13.10;95.90
12761;DHT22;6444;49.742;6.114;2023-02-24T16:28:04;12.60;96.70
12761;DHT22;6444;49.742;6.114;2023-02-24T16:30:30;12.70;96.60
12761;DHT22;6444;49.742;6.114;2023-02-24T16:32:57;13.00;96.80
12761;DHT22;6444;49.742;6.114;2023-02-24T16:35:24;13.30;96.80
12761;DHT22;6444;49.742;6.114;2023-02-24T16:37:51;13.40;96.60
12761;DHT22;6444;49.742;6.114;2023-02-24T16:40:28;13.40;96.60
12761;DHT22;6444;49.742;6.114;2023-02-24T16:42:53;13.10;97.20
12761;DHT22;6444;49.742;6.114;2023-02-24T16:45:20;12.90;97.50
12761;DHT22;6444;49.742;6.114;2023-02-24T16:47:47;13.10;97.60
12761;DHT22;6444;49.742;6.114;2023-02-24T16:50:25;13.00;97.40
12761;DHT22;6444;49.742;6.114;2023-02-24T16:52:46;13.20;97.80
12761;DHT22;6444;49.742;6.114;2023-02-24T16:55:12;12.90;97.80
12761;DHT22;6444;49.742;6.114;2023-02-24T16:57:39;12.60;98.70
12761;DHT22;6444;49.742;6.114;2023-02-24T17:00:06;12.80;99.10
12761;DHT22;6444;49.742;6.114;2023-02-24T17:02:32;12.80;99.90
12761;DHT22;6444;49.742;6.114;2023-02-24T17:04:59;12.40;99.90
12761;DHT22;6444;49.742;6.114;2023-02-24T17:07:25;11.70;99.90
12761;DHT22;6444;49.742;6.114;2023-02-24T17:09:52;11.60;99.90
12761;DHT22;6444;49.742;6.114;2023-02-24T17:12:19;11.40;99.90
12761;DHT22;6444;49.742;6.114;2023-02-24T17:14:45;11.10;99.90
12761;DHT22;6444;49.742;6.114;2023-02-24T17:17:13;11.20;99.90
12761;DHT22;6444;49.742;6.114;2023-02-24T17:19:39;11.20;99.90
12761;DHT22;6444;49.742;6.114;2023-02-24T17:22:06;11.30;99.90
12761;DHT22;6444;49.742;6.114;2023-02-24T17:24:33;11.60;99.90
12761;DHT22;6444;49.742;6.114;2023-02-24T17:27:00;11.50;99.90
12761;DHT22;6444;49.742;6.114;2023-02-24T17:29:27;11.50;99.90
12761;DHT22;6444;49.742;6.114;2023-02-24T17:31:53;11.30;99.90
12761;DHT22;6444;49.742;6.114;2023-02-24T17:34:20;11.40;99.90
12761;DHT22;6444;49.742;6.114;2023-02-24T17:36:47;11.00;99.90